Time;durP1;ratioP1;P1;durP2;ratioP2;P2;SDS_P1;SDS_P2;PMS_P1;PMS_P2;Temp;Humidity;BMP_temperature;BMP_pressure;BME280_temperature;BME280_humidity;BME280_pressure;Samples;Min_cycle;Max_cycle;Signal;HPM_P1;HPM_P2
2022/11/27 00:00:12;;;;;;;9.25;3.22;;;;;;;9.87;64.99;102466.34;5143664;27;20043;-62
2022/11/27 00:02:41;;;;;;;11.85;2.92;;;;;;;9.87;65.06;102459.13;5133833;27;20076;-62
2022/11/27 00:05:09;;;;;;;7.95;2.75;;;;;;;9.87;65.48;102460.97;5145833;27;20055;-62
2022/11/27 00:07:37;;;;;;;10.65;3.80;;;;;;;9.87;65.41;102458.28;5146059;27;20062;-62
2022/11/27 00:10:06;;;;;;;9.60;3.25;;;;;;;9.85;65.47;102452.25;5137362;27;20047;-62
2022/11/27 00:12:34;;;;;;;9.15;2.85;;;;;;;9.85;64.97;102461.16;5140985;27;20043;-61
2022/11/27 00:15:03;;;;;;;8.63;2.85;;;;;;;9.84;65.16;102458.63;5140262;27;20048;-62
2022/11/27 00:17:31;;;;;;;10.07;3.15;;;;;;;9.83;64.93;102451.59;5139175;27;20049;-62
2022/11/27 00:20:00;;;;;;;7.68;2.45;;;;;;;9.81;65.61;102464.38;5144564;27;20051;-62
2022/11/27 00:22:28;;;;;;;8.45;2.83;;;;;;;9.82;65.40;102455.31;5145712;27;20047;-62
2022/11/27 00:24:56;;;;;;;5.97;2.75;;;;;;;9.82;65.21;102456.13;5139327;27;20616;-62
2022/11/27 00:27:23;;;;;;;13.45;3.45;;;;;;;9.81;65.32;102442.88;5143646;27;20043;-61
2022/11/27 00:29:51;;;;;;;11.27;3.67;;;;;;;9.78;64.89;102444.91;5135022;27;20052;-62
2022/11/27 00:32:19;;;;;;;6.68;3.60;;;;;;;9.79;65.32;102435.84;5143873;27;20043;-61
2022/11/27 00:34:46;;;;;;;12.32;2.88;;;;;;;9.77;64.95;102437.88;5146753;27;20054;-62
2022/11/27 00:37:16;;;;;;;11.20;3.33;;;;;;;9.78;65.11;102433.34;5141918;27;20126;-63
2022/11/27 00:39:43;;;;;;;8.27;2.97;;;;;;;9.77;65.06;102432.50;5146277;27;20115;-63
2022/11/27 00:42:11;;;;;;;7.30;2.90;;;;;;;9.76;64.96;102430.81;5131329;27;20689;-63
2022/11/27 00:44:39;;;;;;;8.55;3.25;;;;;;;9.73;65.11;102416.94;5145290;27;20554;-63
2022/11/27 00:47:07;;;;;;;11.02;3.65;;;;;;;9.74;64.85;102424.81;5141138;27;20044;-63
2022/11/27 00:49:34;;;;;;;8.93;3.78;;;;;;;9.75;64.69;102428.31;5141367;27;20058;-63
2022/11/27 00:52:02;;;;;;;9.70;3.60;;;;;;;9.73;64.75;102423.13;5144889;27;20043;-63
2022/11/27 00:54:31;;;;;;;12.98;3.33;;;;;;;9.73;64.83;102433.03;5142400;27;20129;-63
2022/11/27 00:56:59;;;;;;;10.85;2.80;;;;;;;9.72;64.77;102417.94;5145155;27;20130;-63
2022/11/27 00:59:27;;;;;;;9.32;3.28;;;;;;;9.69;65.25;102410.25;5142539;27;20047;-63
2022/11/27 01:01:55;;;;;;;10.40;3.50;;;;;;;9.67;64.85;102413.09;5140955;27;20057;-63
2022/11/27 01:04:22;;;;;;;7.18;2.92;;;;;;;9.67;65.20;102404.22;5143973;27;20189;-63
2022/11/27 01:06:50;;;;;;;9.05;2.70;;;;;;;9.64;65.19;102402.72;5130729;27;20043;-62
2022/11/27 01:09:18;;;;;;;9.52;3.08;;;;;;;9.62;65.23;102404.75;5145994;27;20111;-63
2022/11/27 01:11:47;;;;;;;9.98;2.92;;;;;;;9.61;64.98;102399.56;5143819;27;20043;-64
2022/11/27 01:14:17;;;;;;;12.05;3.20;;;;;;;9.58;65.32;102398.06;5135428;27;20091;-63
2022/11/27 01:16:45;;;;;;;11.65;2.88;;;;;;;9.59;64.58;102396.22;5144831;27;20106;-63
2022/11/27 01:19:14;;;;;;;9.93;3.15;;;;;;;9.57;65.16;102382.13;5137304;27;20078;-63
2022/11/27 01:21:42;;;;;;;7.57;3.03;;;;;;;9.58;64.57;102389.16;5142135;27;20051;-63
2022/11/27 01:24:12;;;;;;;5.93;2.75;;;;;;;9.57;65.15;102384.81;5130495;27;20152;-63
2022/11/27 01:26:40;;;;;;;9.52;3.70;;;;;;;9.57;64.69;102396.38;5144081;27;20524;-63
2022/11/27 01:29:09;;;;;;;9.93;3.35;;;;;;;9.57;65.00;102401.75;5143394;27;20057;-63
2022/11/27 01:31:37;;;;;;;9.75;2.85;;;;;;;9.56;64.87;102397.41;5144079;27;20118;-63
2022/11/27 01:34:07;;;;;;;8.25;3.03;;;;;;;9.56;64.67;102393.88;5142856;27;20130;-62
2022/11/27 01:36:35;;;;;;;10.70;2.97;;;;;;;9.54;64.96;102398.59;5139359;27;20146;-63
2022/11/27 01:39:04;;;;;;;11.07;4.22;;;;;;;9.53;64.59;102380.81;5143824;27;20335;-63
2022/11/27 01:41:34;;;;;;;10.07;3.13;;;;;;;9.51;64.69;102367.56;5144565;27;20047;-62
2022/11/27 01:44:04;;;;;;;8.68;3.20;;;;;;;9.50;64.80;102359.69;5144570;27;20063;-63
2022/11/27 01:46:37;;;;;;;10.35;3.17;;;;;;;9.51;64.42;102366.75;5142690;27;20050;-63
2022/11/27 01:49:23;;;;;;;12.10;2.90;;;;;;;9.51;64.67;102358.69;5139478;27;20055;-63
2022/11/27 01:51:56;;;;;;;12.07;3.88;;;;;;;9.49;64.36;102358.88;5144302;27;20051;-62
2022/11/27 01:54:27;;;;;;;10.00;3.53;;;;;;;9.48;64.82;102362.56;5143282;27;20054;-63
2022/11/27 01:56:57;;;;;;;8.38;3.90;;;;;;;9.49;64.50;102358.03;5143244;27;20039;-63
2022/11/27 01:59:25;;;;;;;8.32;3.55;;;;;;;9.49;64.89;102339.25;5140505;27;20177;-63
2022/11/27 02:01:54;;;;;;;9.10;3.80;;;;;;;9.46;64.69;102327.03;5144187;27;20054;-63
2022/11/27 02:04:22;;;;;;;8.52;3.75;;;;;;;9.46;64.25;102317.13;5135486;27;20063;-63
2022/11/27 02:06:50;;;;;;;8.48;3.80;;;;;;;9.45;64.27;102309.25;5141465;27;20051;-63
2022/11/27 02:09:18;;;;;;;10.85;3.75;;;;;;;9.44;64.37;102307.56;5141294;27;21049;-63
2022/11/27 02:11:53;;;;;;;12.90;4.68;;;;;;;9.44;64.89;102311.09;5137453;27;20043;-62
2022/11/27 02:14:26;;;;;;;9.68;2.92;;;;;;;9.45;64.55;102309.25;5137426;27;20047;-63
2022/11/27 02:17:04;;;;;;;11.23;3.92;;;;;;;9.44;64.15;102304.91;5139730;27;20057;-63
2022/11/27 02:19:44;;;;;;;12.52;3.38;;;;;;;9.42;64.74;102298.88;5134505;27;20055;-63
2022/11/27 02:22:28;;;;;;;9.95;4.10;;;;;;;9.40;64.98;102296.38;5142293;27;20047;-62
2022/11/27 02:25:07;;;;;;;9.77;3.80;;;;;;;9.39;64.29;102289.31;5139938;27;20049;-63
2022/11/27 02:27:57;;;;;;;8.82;3.35;;;;;;;9.39;64.59;102280.44;5143254;27;20050;-63
2022/11/27 02:30:27;;;;;;;9.80;3.33;;;;;;;9.40;64.65;102274.91;5142793;27;20130;-63
2022/11/27 02:32:58;;;;;;;9.35;2.92;;;;;;;9.38;64.72;102270.72;5143565;27;20156;-63
2022/11/27 02:35:31;;;;;;;10.50;3.90;;;;;;;9.38;64.59;102274.25;5138333;27;20043;-62
2022/11/27 02:38:02;;;;;;;10.23;3.45;;;;;;;9.36;64.79;102275.44;5142561;27;20110;-63
2022/11/27 02:40:34;;;;;;;8.52;3.30;;;;;;;9.35;64.46;102271.91;5133368;27;20050;-62
2022/11/27 02:43:07;;;;;;;12.02;3.72;;;;;;;9.34;63.99;102264.88;5144146;27;20082;-62
2022/11/27 02:45:40;;;;;;;9.93;3.60;;;;;;;9.34;64.49;102270.25;5135545;27;20050;-63
2022/11/27 02:48:10;;;;;;;10.93;3.55;;;;;;;9.32;64.45;102258.03;5140651;27;20057;-62
2022/11/27 02:50:41;;;;;;;10.68;3.38;;;;;;;9.30;64.16;102246.63;5136183;28;20046;-62
2022/11/27 02:53:13;;;;;;;11.70;3.70;;;;;;;9.33;63.83;102252.47;5143550;28;20035;-63
2022/11/27 02:55:44;;;;;;;8.52;3.60;;;;;;;9.32;64.21;102260.72;5135835;28;20150;-63
2022/11/27 02:58:15;;;;;;;7.93;3.42;;;;;;;9.29;64.74;102266.44;5141141;28;20055;-62
2022/11/27 03:00:47;;;;;;;8.73;4.25;;;;;;;9.29;64.55;102264.59;5142050;28;20051;-63
2022/11/27 03:03:18;;;;;;;7.93;3.75;;;;;;;9.28;63.97;102273.66;5143441;28;20140;-62
2022/11/27 03:05:50;;;;;;;11.73;3.60;;;;;;;9.28;64.54;102272.81;5129841;28;20448;-63
2022/11/27 03:08:25;;;;;;;8.82;3.50;;;;;;;9.27;64.32;102285.38;5143065;27;20071;-62
2022/11/27 03:11:01;;;;;;;9.88;3.42;;;;;;;9.27;64.12;102284.56;5130268;28;20092;-62
2022/11/27 03:13:32;;;;;;;8.55;3.15;;;;;;;9.24;63.97;102274.19;5143762;28;20439;-62
2022/11/27 03:16:10;;;;;;;11.48;4.00;;;;;;;9.27;64.28;102277.34;5132806;28;20107;-63
2022/11/27 03:18:42;;;;;;;6.72;3.15;;;;;;;9.27;64.06;102280.03;5141047;28;20039;-62
2022/11/27 03:21:17;;;;;;;8.05;3.55;;;;;;;9.26;64.04;102266.78;5139423;28;20499;-63
2022/11/27 03:23:45;;;;;;;10.57;4.45;;;;;;;9.25;64.21;102260.59;5126689;28;20133;-62
2022/11/27 03:26:13;;;;;;;8.88;3.15;;;;;;;9.26;63.82;102253.38;5143486;28;20055;-62
2022/11/27 03:28:44;;;;;;;9.23;3.17;;;;;;;9.24;64.05;102250.03;5143054;28;20039;-63
2022/11/27 03:31:13;;;;;;;9.77;3.28;;;;;;;9.23;63.75;102249.19;5140652;28;20051;-62
2022/11/27 03:33:41;;;;;;;6.60;2.50;;;;;;;9.25;64.02;102259.75;5142940;28;20111;-62
2022/11/27 03:36:13;;;;;;;7.30;2.97;;;;;;;9.22;63.60;102258.25;5144752;27;20129;-63
2022/11/27 03:38:41;;;;;;;8.15;3.25;;;;;;;9.11;63.58;102243.41;5137300;27;20107;-63
2022/11/27 03:41:18;;;;;;;7.13;3.80;;;;;;;9.21;63.76;102248.53;5146291;27;20130;-62
2022/11/27 03:43:53;;;;;;;11.45;3.58;;;;;;;9.20;63.54;102238.00;5142489;27;20133;-63
2022/11/27 03:46:31;;;;;;;9.90;3.03;;;;;;;9.19;64.15;102234.47;5146073;27;20107;-63
2022/11/27 03:49:08;;;;;;;7.07;3.13;;;;;;;9.20;63.74;102219.22;5146313;27;20400;-63
2022/11/27 03:51:42;;;;;;;6.97;3.00;;;;;;;9.20;63.78;102225.41;5162012;27;20045;-63
2022/11/27 03:54:17;;;;;;;6.00;2.90;;;;;;;9.19;63.99;102217.56;5141900;27;20058;-62
2022/11/27 03:56:53;;;;;;;8.10;3.03;;;;;;;9.19;63.45;102223.75;5144410;27;20059;-63
2022/11/27 03:59:25;;;;;;;7.90;3.50;;;;;;;9.17;64.00;102211.53;5146611;27;20062;-63
2022/11/27 04:01:57;;;;;;;11.25;3.17;;;;;;;9.18;63.72;102224.75;5146408;27;20048;-62
2022/11/27 04:04:25;;;;;;;8.68;3.10;;;;;;;9.19;63.75;102228.28;5144432;27;20039;-63
2022/11/27 04:06:53;;;;;;;7.28;3.50;;;;;;;9.18;64.03;102223.94;5145318;27;20051;-62
2022/11/27 04:09:20;;;;;;;9.88;2.75;;;;;;;9.18;63.50;102227.44;5142631;27;20043;-63
2022/11/27 04:11:48;;;;;;;7.82;3.45;;;;;;;9.18;63.89;102227.44;5145980;27;20050;-63
2022/11/27 04:14:16;;;;;;;6.68;2.97;;;;;;;9.19;63.80;102222.91;5138248;27;20050;-62
2022/11/27 04:16:43;;;;;;;7.88;3.00;;;;;;;9.22;63.64;102235.97;5146125;27;20114;-63
2022/11/27 04:19:12;;;;;;;5.43;3.47;;;;;;;9.20;63.52;102238.81;5143927;27;20430;-62
2022/11/27 04:21:40;;;;;;;7.78;3.08;;;;;;;9.20;63.35;102241.50;5145675;27;20054;-62
2022/11/27 04:24:08;;;;;;;10.82;3.90;;;;;;;9.20;63.94;102241.50;5145694;27;20252;-63
2022/11/27 04:26:36;;;;;;;4.85;2.70;;;;;;;9.20;63.49;102246.03;5143253;27;20163;-62
2022/11/27 04:29:03;;;;;;;6.72;3.08;;;;;;;9.18;63.92;102240.84;5133947;27;20075;-63
2022/11/27 04:31:31;;;;;;;7.20;3.03;;;;;;;9.20;63.53;102240.69;5143790;27;20078;-62
2022/11/27 04:33:59;;;;;;;9.77;2.97;;;;;;;9.18;63.65;102235.50;5146817;27;20047;-63
2022/11/27 04:36:28;;;;;;;7.82;2.85;;;;;;;9.17;63.91;102235.66;5141306;27;20054;-63
2022/11/27 04:38:55;;;;;;;6.90;3.17;;;;;;;9.18;63.73;102232.81;5145383;27;20049;-62
2022/11/27 04:41:23;;;;;;;9.32;2.90;;;;;;;9.18;63.72;102234.66;5144738;27;20134;-62
2022/11/27 04:43:51;;;;;;;5.57;2.45;;;;;;;9.18;64.10;102237.34;5146113;27;20058;-63
2022/11/27 04:46:19;;;;;;;8.00;2.72;;;;;;;9.18;63.78;102226.59;5139350;27;20043;-62
2022/11/27 04:48:47;;;;;;;7.78;2.95;;;;;;;9.16;64.05;102225.94;5142467;27;20044;-62
2022/11/27 04:51:14;;;;;;;8.60;2.70;;;;;;;9.16;63.63;102217.91;5140379;27;20066;-63
2022/11/27 04:53:43;;;;;;;8.98;3.85;;;;;;;9.16;63.66;102215.22;5146177;27;20047;-62
2022/11/27 04:56:11;;;;;;;8.57;3.28;;;;;;;9.14;63.93;102202.81;5142285;27;20043;-62
2022/11/27 04:58:39;;;;;;;8.98;2.80;;;;;;;9.15;63.67;102209.03;5143794;27;20138;-63
2022/11/27 05:01:08;;;;;;;7.25;2.80;;;;;;;9.13;63.79;102211.88;5143296;27;20050;-62
2022/11/27 05:03:36;;;;;;;8.75;2.72;;;;;;;9.13;63.92;102201.16;5146265;27;20057;-63
2022/11/27 05:06:04;;;;;;;6.82;2.92;;;;;;;9.12;63.37;102206.69;5143729;27;20051;-62
2022/11/27 05:08:32;;;;;;;8.40;2.85;;;;;;;9.10;63.97;102198.84;5146175;27;20150;-63
2022/11/27 05:11:04;;;;;;;5.88;2.40;;;;;;;9.10;63.88;102185.44;5143254;27;20114;-63
2022/11/27 05:13:32;;;;;;;8.80;2.85;;;;;;;9.10;64.02;102189.97;5142184;27;20047;-63
2022/11/27 05:15:59;;;;;;;8.60;3.38;;;;;;;9.10;63.44;102184.59;5144278;27;20047;-63
2022/11/27 05:18:27;;;;;;;8.48;2.65;;;;;;;9.10;63.37;102171.19;5145384;27;20050;-62
2022/11/27 05:20:57;;;;;;;4.57;2.50;;;;;;;9.09;63.66;102178.41;5142942;27;20661;-63
2022/11/27 05:23:25;;;;;;;9.23;2.72;;;;;;;9.10;63.34;102179.22;5143569;27;20563;-63
2022/11/27 05:25:53;;;;;;;6.40;2.60;;;;;;;9.07;63.23;102163.50;5137770;27;20138;-62
2022/11/27 05:28:23;;;;;;;7.75;2.80;;;;;;;9.10;63.41;102166.66;5165701;27;20150;-63
2022/11/27 05:30:53;;;;;;;6.70;2.55;;;;;;;9.10;63.00;102173.88;5138832;27;20153;-63
2022/11/27 05:33:21;;;;;;;7.35;2.67;;;;;;;9.09;63.17;102175.72;5145650;27;20062;-63
2022/11/27 05:35:49;;;;;;;6.63;3.17;;;;;;;9.09;63.17;102161.47;5134951;27;20068;-63
2022/11/27 05:38:17;;;;;;;8.13;2.47;;;;;;;9.09;63.18;102158.78;5145153;27;20039;-62
2022/11/27 05:40:44;;;;;;;6.45;2.70;;;;;;;9.08;63.83;102163.31;5144787;27;20061;-63
2022/11/27 05:43:12;;;;;;;8.50;3.22;;;;;;;9.07;63.83;102160.81;5144024;27;20047;-63
2022/11/27 05:45:41;;;;;;;7.97;3.50;;;;;;;9.07;63.12;102158.13;5142832;27;20043;-63
2022/11/27 05:48:09;;;;;;;6.72;2.42;;;;;;;9.06;63.05;102159.97;5143019;27;20130;-63
2022/11/27 05:50:36;;;;;;;9.60;2.40;;;;;;;9.07;63.76;102155.44;5134836;27;20047;-63
2022/11/27 05:53:04;;;;;;;9.68;2.97;;;;;;;9.08;63.04;102154.44;5137947;27;20113;-63
2022/11/27 05:55:32;;;;;;;6.47;3.13;;;;;;;9.07;63.78;102147.41;5144437;27;20103;-62
2022/11/27 05:58:00;;;;;;;8.48;2.53;;;;;;;9.05;63.26;102139.53;5144180;27;20568;-63
2022/11/27 06:00:27;;;;;;;6.95;2.63;;;;;;;9.05;63.55;102133.34;5139370;27;20053;-63
2022/11/27 06:02:56;;;;;;;6.93;3.22;;;;;;;9.04;63.49;102127.16;5140490;27;20111;-65
2022/11/27 06:05:24;;;;;;;8.18;2.50;;;;;;;9.05;63.09;102130.66;5134097;27;20101;-63
2022/11/27 06:07:52;;;;;;;5.63;2.42;;;;;;;9.07;63.81;102128.63;5134488;27;20061;-63
2022/11/27 06:10:20;;;;;;;6.00;2.33;;;;;;;9.07;63.70;102124.09;4775682;27;9999891;-63
2022/11/27 06:12:47;;;;;;;7.90;2.30;;;;;;;9.11;63.09;102121.91;5136380;27;20308;-63
2022/11/27 06:15:15;;;;;;;6.38;2.35;;;;;;;9.23;63.10;102122.28;5141409;27;20050;-62
2022/11/27 06:17:43;;;;;;;8.75;2.47;;;;;;;9.40;62.13;102130.00;5141106;27;20706;-62
2022/11/27 06:20:12;;;;;;;5.63;2.65;;;;;;;9.53;62.32;102129.38;5122285;27;20156;-62
2022/11/27 06:22:40;;;;;;;6.65;2.83;;;;;;;9.67;61.90;102120.50;5122635;27;20107;-63
2022/11/27 06:25:08;;;;;;;4.78;2.10;;;;;;;9.84;61.07;102110.41;5121432;28;20047;-63
2022/11/27 06:27:36;;;;;;;8.63;3.00;;;;;;;9.93;60.95;102109.28;5140984;27;20061;-65
2022/11/27 06:30:06;;;;;;;4.85;2.25;;;;;;;9.92;61.17;102107.63;5140743;27;20547;-63
2022/11/27 06:32:33;;;;;;;4.97;2.13;;;;;;;9.88;61.08;102100.97;5136699;27;20236;-63
2022/11/27 06:35:01;;;;;;;4.45;2.33;;;;;;;9.80;61.11;102101.06;5136783;27;20053;-63
2022/11/27 06:37:30;;;;;;;5.13;2.05;;;;;;;9.74;61.81;102110.69;5137955;27;20081;-64
2022/11/27 06:39:58;;;;;;;5.20;2.40;;;;;;;9.66;61.88;102118.84;5120988;28;20559;-62
2022/11/27 06:42:28;;;;;;;7.25;2.42;;;;;;;9.60;61.77;102113.38;5134446;27;20571;-63
2022/11/27 06:44:56;;;;;;;5.00;2.20;;;;;;;9.55;62.10;102115.78;5123841;27;20059;-62
2022/11/27 06:47:24;;;;;;;5.15;2.40;;;;;;;9.50;61.82;102115.50;5140348;27;20043;-62
2022/11/27 06:49:51;;;;;;;4.97;2.20;;;;;;;9.48;62.14;102109.47;5140393;28;20047;-62
2022/11/27 06:52:19;;;;;;;3.90;1.73;;;;;;;9.43;62.88;102105.50;5135187;28;20106;-62
2022/11/27 06:54:48;;;;;;;7.88;2.33;;;;;;;9.41;62.99;102107.53;5135860;28;20051;-62
2022/11/27 06:57:16;;;;;;;5.55;2.03;;;;;;;9.39;62.54;102111.41;5138420;28;20312;-61
2022/11/27 06:59:44;;;;;;;3.70;1.98;;;;;;;9.37;62.57;102097.34;5140463;28;20126;-63
2022/11/27 07:02:13;;;;;;;5.05;2.42;;;;;;;9.33;63.08;102099.56;5139238;28;20050;-63
2022/11/27 07:04:41;;;;;;;6.88;1.95;;;;;;;9.30;63.07;102093.72;5126956;28;20142;-62
2022/11/27 07:07:09;;;;;;;6.15;2.03;;;;;;;9.29;63.31;102094.75;5128580;27;20043;-63
2022/11/27 07:09:37;;;;;;;6.65;2.50;;;;;;;9.28;63.59;102096.59;5141247;27;20040;-63
2022/11/27 07:12:07;;;;;;;5.15;2.40;;;;;;;9.27;63.07;102083.34;5141831;27;20421;-63
2022/11/27 07:14:34;;;;;;;4.30;1.90;;;;;;;9.26;63.63;102079.84;5138132;27;20062;-63
2022/11/27 07:17:02;;;;;;;5.65;2.83;;;;;;;9.24;63.40;102070.31;5133068;27;20074;-63
2022/11/27 07:19:30;;;;;;;3.65;2.40;;;;;;;9.21;63.34;102066.16;5137186;27;20127;-63
2022/11/27 07:21:57;;;;;;;5.10;2.00;;;;;;;9.20;63.84;102067.16;5130576;27;20059;-63
2022/11/27 07:24:25;;;;;;;5.10;2.25;;;;;;;9.20;63.78;102055.59;5134488;27;20422;-63
2022/11/27 07:26:53;;;;;;;7.25;2.10;;;;;;;9.17;64.25;102047.91;5143875;27;20047;-63
2022/11/27 07:29:22;;;;;;;5.70;2.50;;;;;;;9.17;64.00;102053.28;5144349;27;20074;-63
2022/11/27 07:31:50;;;;;;;5.00;2.20;;;;;;;9.17;64.35;102042.56;5129452;27;20163;-63
2022/11/27 07:34:18;;;;;;;4.88;2.08;;;;;;;9.27;64.07;102043.97;5143087;27;20055;-62
2022/11/27 07:36:48;;;;;;;6.13;2.53;;;;;;;9.44;63.04;102044.59;5142965;27;20071;-62
2022/11/27 07:39:16;;;;;;;6.90;2.65;;;;;;;9.59;62.50;102039.25;5136968;27;20043;-63
2022/11/27 07:42:04;;;;;;;6.95;2.00;;;;;;;9.76;62.26;102048.75;5133476;27;21070;-63
2022/11/27 07:44:53;;;;;;;8.80;2.05;;;;;;;9.92;61.79;102039.66;5146366;27;20062;-63
2022/11/27 07:47:21;;;;;;;7.10;2.30;;;;;;;9.98;61.33;102046.97;5145752;27;20050;-63
2022/11/27 07:49:59;;;;;;;5.10;2.25;;;;;;;9.93;61.55;102035.97;5146830;27;20107;-63
2022/11/27 07:52:27;;;;;;;5.35;1.98;;;;;;;9.86;61.39;102040.41;4786539;27;10000199;-63
2022/11/27 07:54:55;;;;;;;6.15;2.53;;;;;;;9.76;62.11;102036.16;5123724;27;20052;-62
2022/11/27 07:57:22;;;;;;;5.60;2.42;;;;;;;9.67;62.77;102018.50;5141942;27;20051;-63
2022/11/27 07:59:50;;;;;;;8.70;2.83;;;;;;;9.59;62.33;102021.28;5130519;27;20103;-63
2022/11/27 08:02:19;;;;;;;8.32;2.47;;;;;;;9.52;63.08;102023.06;5142146;27;20043;-63
2022/11/27 08:04:47;;;;;;;7.63;2.67;;;;;;;9.48;63.17;102010.19;5144163;27;20043;-63
2022/11/27 08:07:15;;;;;;;8.80;2.90;;;;;;;9.38;63.13;102000.56;5140028;27;20047;-64
2022/11/27 08:09:43;;;;;;;6.82;2.35;;;;;;;9.42;63.28;102006.41;5155227;27;20046;-65
2022/11/27 08:12:11;;;;;;;5.57;2.47;;;;;;;9.39;63.56;101994.19;5135697;27;20047;-65
2022/11/27 08:14:38;;;;;;;10.40;2.60;;;;;;;9.38;64.11;101994.38;5135791;27;20040;-63
2022/11/27 08:17:06;;;;;;;5.13;2.30;;;;;;;9.35;63.78;101995.56;5138237;27;20054;-65
2022/11/27 08:19:35;;;;;;;10.30;2.70;;;;;;;9.35;63.64;101992.06;5134635;27;20077;-64
2022/11/27 08:22:03;;;;;;;6.95;2.72;;;;;;;9.29;64.12;101996.31;5125058;27;20056;-64
2022/11/27 08:24:31;;;;;;;5.20;2.30;;;;;;;9.27;64.49;101997.53;5143616;27;20066;-64
2022/11/27 08:26:59;;;;;;;12.73;3.22;;;;;;;9.26;64.55;101994.00;5136857;27;20054;-64
2022/11/27 08:29:26;;;;;;;6.43;2.72;;;;;;;9.20;64.26;101984.00;5145289;27;20130;-65
2022/11/27 08:32:00;;;;;;;6.88;2.63;;;;;;;9.25;64.81;101995.03;5139589;27;20051;-65
2022/11/27 08:34:28;;;;;;;6.43;2.78;;;;;;;9.24;64.37;101998.72;5141878;27;20097;-64
2022/11/27 08:36:57;;;;;;;7.13;2.95;;;;;;;9.23;64.62;101996.22;5130904;27;20050;-65
2022/11/27 08:39:26;;;;;;;5.47;2.70;;;;;;;9.24;64.22;101995.22;5142564;27;20059;-64
2022/11/27 08:41:54;;;;;;;6.03;2.78;;;;;;;9.22;64.42;101986.50;5143364;27;20079;-64
2022/11/27 08:44:21;;;;;;;5.40;2.63;;;;;;;9.22;64.91;101983.84;5138748;27;20115;-64
2022/11/27 08:46:49;;;;;;;11.02;3.22;;;;;;;9.21;64.25;101987.53;5131467;27;20111;-65
2022/11/27 08:49:17;;;;;;;6.95;3.22;;;;;;;9.20;64.48;101977.81;5137689;27;20043;-64
2022/11/27 08:51:45;;;;;;;8.73;3.10;;;;;;;9.19;65.02;101978.84;5140524;27;20392;-66
2022/11/27 08:54:14;;;;;;;6.00;2.67;;;;;;;9.20;64.22;101984.00;5143290;27;20054;-65
2022/11/27 08:56:41;;;;;;;7.80;3.25;;;;;;;9.19;64.43;101981.50;5142101;27;20072;-65
2022/11/27 08:59:09;;;;;;;5.68;2.85;;;;;;;9.19;64.69;101990.41;5141457;27;20039;-64
2022/11/27 09:01:37;;;;;;;6.50;3.00;;;;;;;9.20;64.30;101991.22;5141904;27;20054;-62
2022/11/27 09:04:05;;;;;;;6.63;3.35;;;;;;;9.19;64.66;101994.94;5127792;27;20145;-63
2022/11/27 09:06:33;;;;;;;4.60;2.50;;;;;;;9.17;64.74;101994.28;5142296;27;20126;-63
2022/11/27 09:09:03;;;;;;;5.00;3.08;;;;;;;9.18;65.09;101994.09;5137658;27;20043;-62
2022/11/27 09:11:34;;;;;;;8.25;3.47;;;;;;;9.19;64.67;101997.59;5121908;28;20434;-62
2022/11/27 09:14:03;;;;;;;8.02;3.03;;;;;;;9.13;64.90;101991.97;5121995;28;20062;-62
2022/11/27 09:16:31;;;;;;;8.52;3.25;;;;;;;9.07;64.58;101975.78;5133418;27;20050;-63
2022/11/27 09:18:59;;;;;;;5.20;2.90;;;;;;;9.14;65.39;101990.13;5136881;27;20043;-62
2022/11/27 09:21:30;;;;;;;5.68;2.92;;;;;;;9.15;65.20;101989.09;5141572;27;20054;-62
2022/11/27 09:23:59;;;;;;;5.80;2.70;;;;;;;9.12;65.32;101989.47;5140694;27;20054;-62
2022/11/27 09:26:28;;;;;;;5.82;3.00;;;;;;;9.13;64.76;101991.97;5134517;27;20089;-62
2022/11/27 09:28:58;;;;;;;5.60;3.05;;;;;;;9.13;65.29;101988.44;5141949;27;20118;-63
2022/11/27 09:31:26;;;;;;;5.18;3.00;;;;;;;9.11;65.18;101985.97;5130310;27;20043;-60
2022/11/27 09:33:54;;;;;;;6.60;3.17;;;;;;;9.18;65.14;101993.25;5139078;27;20066;-59
2022/11/27 09:36:23;;;;;;;7.40;3.35;;;;;;;9.33;64.99;101994.94;5131622;27;20579;-60
2022/11/27 09:38:52;;;;;;;6.60;2.88;;;;;;;9.47;64.15;101982.53;5140162;27;20070;-60
2022/11/27 09:41:38;;;;;;;6.93;2.85;;;;;;;9.66;64.02;101983.78;5141409;27;20047;-59
2022/11/27 09:44:23;;;;;;;5.93;2.63;;;;;;;9.81;63.52;101989.13;5122238;28;20066;-59
2022/11/27 09:46:53;;;;;;;6.65;2.83;;;;;;;9.96;62.99;101989.94;5139523;27;20062;-59
2022/11/27 09:49:27;;;;;;;6.50;3.10;;;;;;;10.11;62.59;101979.97;5135531;27;20103;-59
2022/11/27 09:52:01;;;;;;;5.82;3.08;;;;;;;10.22;61.96;101976.81;5141506;27;20074;-59
2022/11/27 09:54:35;;;;;;;5.50;2.97;;;;;;;10.38;61.11;101973.03;5138801;27;20057;-60
2022/11/27 09:57:05;;;;;;;7.25;2.55;;;;;;;10.52;61.22;101965.88;5144529;27;20047;-59
2022/11/27 09:59:41;;;;;;;6.47;2.88;;;;;;;10.57;60.95;101974.19;5141468;27;20073;-59
2022/11/27 10:02:17;;;;;;;8.15;2.95;;;;;;;10.51;60.90;101958.84;5138755;27;20079;-64
2022/11/27 10:04:45;;;;;;;5.22;2.80;;;;;;;10.42;61.26;101958.16;5141251;27;20057;-58
2022/11/27 10:07:42;;;;;;;8.75;2.97;;;;;;;10.24;61.92;101969.38;5139121;27;20054;-59
2022/11/27 10:10:26;;;;;;;9.38;3.15;;;;;;;10.10;62.11;101957.66;5135640;27;20046;-59
2022/11/27 10:13:04;;;;;;;6.05;2.75;;;;;;;9.98;62.79;101956.50;5143924;27;20051;-58
2022/11/27 10:15:42;;;;;;;4.38;2.60;;;;;;;9.92;63.36;101943.81;5139572;27;20043;-59
2022/11/27 10:18:16;;;;;;;4.35;2.97;;;;;;;9.86;63.49;101947.28;5129082;27;20107;-59
2022/11/27 10:20:48;;;;;;;4.93;2.47;;;;;;;9.79;63.46;101938.31;5139146;27;20506;-60
2022/11/27 10:23:24;;;;;;;6.43;3.33;;;;;;;9.75;64.08;101942.41;5149420;27;20067;-59
2022/11/27 10:25:58;;;;;;;12.73;3.40;;;;;;;9.69;64.20;101929.72;5141614;27;20047;-59
2022/11/27 10:28:35;;;;;;;10.02;3.20;;;;;;;9.66;64.39;101924.75;5142838;27;20500;-61
2022/11/27 10:31:11;;;;;;;5.75;3.50;;;;;;;9.63;64.23;101927.81;5123439;27;20047;-61
2022/11/27 10:33:45;;;;;;;7.07;3.50;;;;;;;9.58;64.31;101919.50;5141823;27;20043;-60
2022/11/27 10:36:17;;;;;;;6.57;3.70;;;;;;;9.57;64.56;101924.03;5142281;27;20123;-60
2022/11/27 10:38:47;;;;;;;6.57;3.17;;;;;;;9.53;65.09;101917.38;5137657;27;20063;-61
2022/11/27 10:41:19;;;;;;;7.35;3.50;;;;;;;9.51;64.50;101908.69;5141476;27;20043;-61
2022/11/27 10:44:23;;;;;;;7.60;3.47;;;;;;;9.51;65.51;101916.72;5127806;27;20059;-61
2022/11/27 10:46:58;;;;;;;8.32;4.32;;;;;;;9.48;65.58;101905.53;5139835;27;20057;-61
2022/11/27 10:49:25;;;;;;;7.28;3.40;;;;;;;9.48;65.42;101913.59;5132648;27;20066;-63
2022/11/27 10:51:53;;;;;;;8.20;3.50;;;;;;;9.49;65.05;101904.53;5148163;27;20046;-62
2022/11/27 10:54:25;;;;;;;6.20;3.10;;;;;;;9.48;65.41;101900.16;5150422;27;20058;-60
2022/11/27 10:57:09;;;;;;;5.20;3.00;;;;;;;9.46;65.39;101898.50;5139915;28;20058;-61
2022/11/27 10:59:43;;;;;;;8.98;3.47;;;;;;;9.46;65.51;101890.47;5129819;28;20059;-62
2022/11/27 11:02:29;;;;;;;6.13;3.15;;;;;;;9.46;65.38;101889.63;5154825;27;20043;-61
2022/11/27 11:04:56;;;;;;;8.10;3.85;;;;;;;9.45;65.38;101886.13;5134137;27;20110;-63
2022/11/27 11:07:55;;;;;;;5.95;3.55;;;;;;;9.46;65.81;101886.94;5123872;28;20056;-62
2022/11/27 11:10:27;;;;;;;5.90;4.07;;;;;;;9.45;65.86;101879.91;5132513;28;20043;-62
2022/11/27 11:13:16;;;;;;;7.07;3.47;;;;;;;9.48;65.87;101873.34;5144461;28;20051;-60
2022/11/27 11:15:49;;;;;;;7.40;3.40;;;;;;;9.50;66.22;101863.25;5143261;27;20081;-62
2022/11/27 11:18:22;;;;;;;6.47;3.70;;;;;;;9.52;65.58;101861.22;5138960;28;20051;-61
2022/11/27 11:20:52;;;;;;;6.65;3.53;;;;;;;9.54;65.88;101851.13;5141288;28;20074;-61
2022/11/27 11:23:24;;;;;;;7.15;4.22;;;;;;;9.55;65.90;101844.72;5137327;28;20054;-61
2022/11/27 11:25:55;;;;;;;8.02;3.72;;;;;;;9.55;65.52;101844.72;5143966;28;20047;-61
2022/11/27 11:28:24;;;;;;;6.57;3.47;;;;;;;9.56;65.43;101835.66;5144967;28;20157;-61
2022/11/27 11:30:55;;;;;;;7.72;3.70;;;;;;;9.52;65.89;101829.00;5135686;28;20054;-61
2022/11/27 11:33:25;;;;;;;5.60;3.50;;;;;;;9.58;65.46;101831.75;5144640;28;20067;-61
2022/11/27 11:35:55;;;;;;;6.82;3.45;;;;;;;9.61;65.38;101828.69;5133890;28;20043;-61
2022/11/27 11:38:30;;;;;;;9.68;3.72;;;;;;;9.64;65.46;101814.88;5137690;27;20054;-60
2022/11/27 11:41:02;;;;;;;7.85;4.20;;;;;;;9.68;65.30;101826.06;5131257;28;20050;-63
2022/11/27 11:43:32;;;;;;;7.30;3.53;;;;;;;9.65;65.68;101815.72;5132071;28;20130;-61
2022/11/27 11:46:07;;;;;;;6.00;3.92;;;;;;;9.63;65.68;101815.91;5128352;27;20083;-58